Bonaria — ICUS — position and weather

sailwx.info

Track history (hours):
 
Tides and Currents Weather Stations Pressure Air Temp Water Temp Dewpoint Dewpoint Depression Visibility Wind Speed Wind Dir Waves Ship Positions

Bonaria

Last reported at 2014-Aug-21 09:33 UTC. Time now 2014-Aug-21 10:12 UTC.
Position N 39°13' E 009°06'.

Length 213 m; draft 7 m.

Type: Ship. MMSI: 247322400.

Date/timePositionNaut miles runAvg speedWind from/ knotsBaromVisibWave heightAir tempDewpointWater temp
2014-Aug-21 09:33N 39°13' E 009°06'0 0.0
2014-Aug-21 08:32N 39°13' E 009°06'8 8.1
2014-Aug-21 07:33N 39°06' E 009°13'2 0.1
2014-Aug-19 17:33N 39°08' E 009°11'6 5.8
2014-Aug-19 16:33N 39°13' E 009°06'0 0.0
2014-Aug-19 15:33N 39°13' E 009°06'0 0.0
2014-Aug-19 14:33N 39°13' E 009°06'0 0.0
2014-Aug-19 13:32N 39°13' E 009°06'0 0.0
2014-Aug-19 12:33N 39°13' E 009°06'0 0.0
2014-Aug-19 11:33N 39°13' E 009°06'0 0.0
2014-Aug-19 10:33N 39°13' E 009°06'0 0.0
2014-Aug-19 09:33N 39°13' E 009°06'0 0.0
2014-Aug-19 08:33N 39°13' E 009°06'0 0.0
2014-Aug-19 07:33N 39°13' E 009°06'0 0.0
2014-Aug-19 06:33N 39°13' E 009°06'2 1.8
2014-Aug-19 05:33N 39°11' E 009°07'3 0.1
2014-Aug-17 17:33N 39°09' E 009°10'5 4.7
2014-Aug-17 16:31N 39°13' E 009°06'0 0.0
2014-Aug-17 15:31N 39°13' E 009°06'0 0.0
2014-Aug-17 14:33N 39°13' E 009°06'0 0.0
2014-Aug-17 13:33N 39°13' E 009°06'0 0.0
2014-Aug-17 12:33N 39°13' E 009°06'0 0.0
2014-Aug-17 11:32N 39°13' E 009°06'0 0.0
2014-Aug-17 10:32N 39°13' E 009°06'0 0.0
2014-Aug-17 09:28N 39°13' E 009°06'0 0.0
2014-Aug-17 08:31N 39°13' E 009°06'0 0.0
2014-Aug-17 07:33N 39°13' E 009°06'0 0.0
2014-Aug-17 06:33N 39°13' E 009°06'2 2.3
2014-Aug-17 05:33N 39°10' E 009°07'3 0.1
2014-Aug-15 17:33N 39°08' E 009°09'5 4.9
2014-Aug-15 16:33N 39°13' E 009°06'0 0.0
2014-Aug-15 15:33N 39°13' E 009°06'0 0.0
2014-Aug-15 14:32N 39°13' E 009°06'0 0.0
2014-Aug-15 13:33N 39°13' E 009°06'0 0.0
2014-Aug-15 12:32N 39°13' E 009°06'0 0.0
2014-Aug-15 11:33N 39°13' E 009°06'0 0.0
2014-Aug-15 10:33N 39°13' E 009°06'0 0.0
2014-Aug-15 09:33N 39°13' E 009°06'0 0.0
2014-Aug-15 08:33N 39°13' E 009°06'0 0.0
2014-Aug-15 07:33N 39°13' E 009°06'0 0.0
2014-Aug-15 06:33N 39°13' E 009°06'4 4.3
2014-Aug-15 05:32N 39°09' E 009°09'20 0.6
2014-Aug-13 18:28N 38°58' E 009°31'1921.1
2014-Aug-13 17:33N 39°09' E 009°09'4 4.5
2014-Aug-13 16:33N 39°13' E 009°06'0 0.0
2014-Aug-13 15:33N 39°13' E 009°06'0 0.0
2014-Aug-13 14:33N 39°13' E 009°06'0 0.0
2014-Aug-13 13:32N 39°13' E 009°06'0 0.0
2014-Aug-13 12:32N 39°13' E 009°06'0 0.0
2014-Aug-13 11:31N 39°13' E 009°06'0 0.0
2014-Aug-13 10:31N 39°13' E 009°06'0 0.0
2014-Aug-13 09:33N 39°13' E 009°06'0 0.0
2014-Aug-13 08:33N 39°13' E 009°06'0 0.0
2014-Aug-13 07:32N 39°13' E 009°06'0 0.0
2014-Aug-13 06:32N 39°13' E 009°06'2 1.8
2014-Aug-13 05:33N 39°11' E 009°07'23 0.6
2014-Aug-11 18:34N 38°58' E 009°31'2019.6
2014-Aug-11 17:33N 39°09' E 009°10'5 4.4
2014-Aug-11 16:31N 39°13' E 009°06'  
Track history (hours):
 
Tides and Currents Weather Stations Pressure Air Temp Water Temp Dewpoint Dewpoint Depression Visibility Wind Speed Wind Dir Waves Ship Positions

Bonaria

Last reported at 2014-Aug-21 09:33 UTC. Time now 2014-Aug-21 10:12 UTC.
Position N 39°13' E 009°06'.

Length 213 m; draft 7 m.

Type: Ship. MMSI: 247322400.

Date/timePositionNaut miles runAvg speedWind from/ knotsBaromVisibWave heightAir tempDewpointWater temp
2014-Aug-21 09:33N 39°13' E 009°06'0 0.0
2014-Aug-21 08:32N 39°13' E 009°06'8 8.1
2014-Aug-21 07:33N 39°06' E 009°13'2 0.1
2014-Aug-19 17:33N 39°08' E 009°11'6 5.8
2014-Aug-19 16:33N 39°13' E 009°06'0 0.0
2014-Aug-19 15:33N 39°13' E 009°06'0 0.0
2014-Aug-19 14:33N 39°13' E 009°06'0 0.0
2014-Aug-19 13:32N 39°13' E 009°06'0 0.0
2014-Aug-19 12:33N 39°13' E 009°06'0 0.0
2014-Aug-19 11:33N 39°13' E 009°06'0 0.0
2014-Aug-19 10:33N 39°13' E 009°06'0 0.0
2014-Aug-19 09:33N 39°13' E 009°06'0 0.0
2014-Aug-19 08:33N 39°13' E 009°06'0 0.0
2014-Aug-19 07:33N 39°13' E 009°06'0 0.0
2014-Aug-19 06:33N 39°13' E 009°06'2 1.8
2014-Aug-19 05:33N 39°11' E 009°07'3 0.1
2014-Aug-17 17:33N 39°09' E 009°10'5 4.7
2014-Aug-17 16:31N 39°13' E 009°06'0 0.0
2014-Aug-17 15:31N 39°13' E 009°06'0 0.0
2014-Aug-17 14:33N 39°13' E 009°06'0 0.0
2014-Aug-17 13:33N 39°13' E 009°06'0 0.0
2014-Aug-17 12:33N 39°13' E 009°06'0 0.0
2014-Aug-17 11:32N 39°13' E 009°06'0 0.0
2014-Aug-17 10:32N 39°13' E 009°06'0 0.0
2014-Aug-17 09:28N 39°13' E 009°06'0 0.0
2014-Aug-17 08:31N 39°13' E 009°06'0 0.0
2014-Aug-17 07:33N 39°13' E 009°06'0 0.0
2014-Aug-17 06:33N 39°13' E 009°06'2 2.3
2014-Aug-17 05:33N 39°10' E 009°07'3 0.1
2014-Aug-15 17:33N 39°08' E 009°09'5 4.9
2014-Aug-15 16:33N 39°13' E 009°06'0 0.0
2014-Aug-15 15:33N 39°13' E 009°06'0 0.0
2014-Aug-15 14:32N 39°13' E 009°06'0 0.0
2014-Aug-15 13:33N 39°13' E 009°06'0 0.0
2014-Aug-15 12:32N 39°13' E 009°06'0 0.0
2014-Aug-15 11:33N 39°13' E 009°06'0 0.0
2014-Aug-15 10:33N 39°13' E 009°06'0 0.0
2014-Aug-15 09:33N 39°13' E 009°06'0 0.0
2014-Aug-15 08:33N 39°13' E 009°06'0 0.0
2014-Aug-15 07:33N 39°13' E 009°06'0 0.0
2014-Aug-15 06:33N 39°13' E 009°06'4 4.3
2014-Aug-15 05:32N 39°09' E 009°09'20 0.6
2014-Aug-13 18:28N 38°58' E 009°31'1921.1
2014-Aug-13 17:33N 39°09' E 009°09'4 4.5
2014-Aug-13 16:33N 39°13' E 009°06'0 0.0
2014-Aug-13 15:33N 39°13' E 009°06'0 0.0
2014-Aug-13 14:33N 39°13' E 009°06'0 0.0
2014-Aug-13 13:32N 39°13' E 009°06'0 0.0
2014-Aug-13 12:32N 39°13' E 009°06'0 0.0
2014-Aug-13 11:31N 39°13' E 009°06'0 0.0
2014-Aug-13 10:31N 39°13' E 009°06'0 0.0
2014-Aug-13 09:33N 39°13' E 009°06'0 0.0
2014-Aug-13 08:33N 39°13' E 009°06'0 0.0
2014-Aug-13 07:32N 39°13' E 009°06'0 0.0
2014-Aug-13 06:32N 39°13' E 009°06'2 1.8
2014-Aug-13 05:33N 39°11' E 009°07'23 0.6
2014-Aug-11 18:34N 38°58' E 009°31'2019.6
2014-Aug-11 17:33N 39°09' E 009°10'5 4.4
2014-Aug-11 16:31N 39°13' E 009°06'  

Dump ship's entire track history